sensor_id;sensor_type;location;lat;lon;timestamp;temperature;humidity
6210;DHT22;3138;52.550;13.148;2022-10-16T00:01:34;15.00;99.90
6210;DHT22;3138;52.550;13.148;2022-10-16T00:04:03;15.00;99.90
6210;DHT22;3138;52.550;13.148;2022-10-16T00:06:30;15.00;99.90
6210;DHT22;3138;52.550;13.148;2022-10-16T00:08:57;15.00;99.90
6210;DHT22;3138;52.550;13.148;2022-10-16T00:11:25;15.00;99.90
6210;DHT22;3138;52.550;13.148;2022-10-16T00:13:56;15.00;99.90
6210;DHT22;3138;52.550;13.148;2022-10-16T00:16:23;15.00;99.90
6210;DHT22;3138;52.550;13.148;2022-10-16T00:18:50;15.00;99.90
6210;DHT22;3138;52.550;13.148;2022-10-16T00:21:22;15.00;99.90
6210;DHT22;3138;52.550;13.148;2022-10-16T00:23:51;15.00;99.90
6210;DHT22;3138;52.550;13.148;2022-10-16T00:26:19;15.10;99.90
6210;DHT22;3138;52.550;13.148;2022-10-16T00:28:46;15.00;99.90
6210;DHT22;3138;52.550;13.148;2022-10-16T00:31:14;15.00;99.90
6210;DHT22;3138;52.550;13.148;2022-10-16T00:33:41;15.00;99.90
6210;DHT22;3138;52.550;13.148;2022-10-16T00:36:10;15.10;99.90
6210;DHT22;3138;52.550;13.148;2022-10-16T00:38:39;15.10;99.90
6210;DHT22;3138;52.550;13.148;2022-10-16T00:41:06;15.00;99.90
6210;DHT22;3138;52.550;13.148;2022-10-16T00:43:37;15.00;99.90
6210;DHT22;3138;52.550;13.148;2022-10-16T00:46:07;15.00;99.90
6210;DHT22;3138;52.550;13.148;2022-10-16T00:48:36;14.90;99.90
6210;DHT22;3138;52.550;13.148;2022-10-16T00:51:04;14.90;99.90
6210;DHT22;3138;52.550;13.148;2022-10-16T00:53:32;14.90;99.90
6210;DHT22;3138;52.550;13.148;2022-10-16T00:56:01;14.90;99.90
6210;DHT22;3138;52.550;13.148;2022-10-16T00:58:28;14.90;99.90
6210;DHT22;3138;52.550;13.148;2022-10-16T01:00:54;15.00;99.90
6210;DHT22;3138;52.550;13.148;2022-10-16T01:03:27;14.90;99.90
6210;DHT22;3138;52.550;13.148;2022-10-16T01:06:04;14.90;99.90
6210;DHT22;3138;52.550;13.148;2022-10-16T01:08:41;14.90;99.90
6210;DHT22;3138;52.550;13.148;2022-10-16T01:11:19;14.90;99.90
6210;DHT22;3138;52.550;13.148;2022-10-16T01:13:52;14.80;99.90
6210;DHT22;3138;52.550;13.148;2022-10-16T01:16:27;14.90;99.90
6210;DHT22;3138;52.550;13.148;2022-10-16T01:18:59;14.90;99.90
6210;DHT22;3138;52.550;13.148;2022-10-16T01:21:31;14.90;99.90
6210;DHT22;3138;52.550;13.148;2022-10-16T01:24:03;14.90;99.90
6210;DHT22;3138;52.550;13.148;2022-10-16T01:26:48;14.90;99.90
6210;DHT22;3138;52.550;13.148;2022-10-16T01:29:21;14.80;99.90
6210;DHT22;3138;52.550;13.148;2022-10-16T01:32:04;14.90;99.90
6210;DHT22;3138;52.550;13.148;2022-10-16T01:34:37;14.80;99.90
6210;DHT22;3138;52.550;13.148;2022-10-16T01:37:07;14.80;99.90
6210;DHT22;3138;52.550;13.148;2022-10-16T01:39:39;14.80;99.90
6210;DHT22;3138;52.550;13.148;2022-10-16T01:42:11;14.80;99.90
6210;DHT22;3138;52.550;13.148;2022-10-16T01:44:40;14.80;99.90
6210;DHT22;3138;52.550;13.148;2022-10-16T01:47:09;14.90;99.90
6210;DHT22;3138;52.550;13.148;2022-10-16T01:49:38;14.80;99.90
6210;DHT22;3138;52.550;13.148;2022-10-16T01:52:11;14.80;99.90
6210;DHT22;3138;52.550;13.148;2022-10-16T01:54:42;14.80;99.90
6210;DHT22;3138;52.550;13.148;2022-10-16T01:57:10;14.80;99.90
6210;DHT22;3138;52.550;13.148;2022-10-16T01:59:43;14.70;99.90
6210;DHT22;3138;52.550;13.148;2022-10-16T02:02:11;14.70;99.90
6210;DHT22;3138;52.550;13.148;2022-10-16T02:04:42;14.70;99.90
6210;DHT22;3138;52.550;13.148;2022-10-16T02:07:10;14.80;99.90
6210;DHT22;3138;52.550;13.148;2022-10-16T02:09:37;14.80;99.90
6210;DHT22;3138;52.550;13.148;2022-10-16T02:12:10;14.80;99.90
6210;DHT22;3138;52.550;13.148;2022-10-16T02:14:39;14.80;99.90
6210;DHT22;3138;52.550;13.148;2022-10-16T02:17:11;14.80;99.90
6210;DHT22;3138;52.550;13.148;2022-10-16T02:19:37;14.80;99.90
6210;DHT22;3138;52.550;13.148;2022-10-16T02:22:07;14.80;99.90
6210;DHT22;3138;52.550;13.148;2022-10-16T02:24:39;14.90;99.90
6210;DHT22;3138;52.550;13.148;2022-10-16T02:27:12;14.90;99.90
6210;DHT22;3138;52.550;13.148;2022-10-16T02:29:45;14.80;99.90
6210;DHT22;3138;52.550;13.148;2022-10-16T02:32:17;14.70;99.90
6210;DHT22;3138;52.550;13.148;2022-10-16T02:34:45;14.70;99.90
6210;DHT22;3138;52.550;13.148;2022-10-16T02:37:13;14.70;99.90
6210;DHT22;3138;52.550;13.148;2022-10-16T02:39:41;14.70;99.90
6210;DHT22;3138;52.550;13.148;2022-10-16T02:42:10;14.60;99.90
6210;DHT22;3138;52.550;13.148;2022-10-16T02:44:36;14.50;99.90
6210;DHT22;3138;52.550;13.148;2022-10-16T02:47:04;14.50;99.90
6210;DHT22;3138;52.550;13.148;2022-10-16T02:49:31;14.50;99.90
6210;DHT22;3138;52.550;13.148;2022-10-16T02:51:58;14.50;99.90
6210;DHT22;3138;52.550;13.148;2022-10-16T02:54:24;14.40;99.90
6210;DHT22;3138;52.550;13.148;2022-10-16T02:56:51;14.30;99.90
6210;DHT22;3138;52.550;13.148;2022-10-16T02:59:18;14.20;99.90
6210;DHT22;3138;52.550;13.148;2022-10-16T03:01:44;14.20;99.90
6210;DHT22;3138;52.550;13.148;2022-10-16T03:04:12;14.20;99.90
6210;DHT22;3138;52.550;13.148;2022-10-16T03:06:40;14.10;99.90
6210;DHT22;3138;52.550;13.148;2022-10-16T03:09:07;14.00;99.90
6210;DHT22;3138;52.550;13.148;2022-10-16T03:11:33;13.90;99.90
6210;DHT22;3138;52.550;13.148;2022-10-16T03:14:00;13.80;99.90
6210;DHT22;3138;52.550;13.148;2022-10-16T03:16:27;13.80;99.90
6210;DHT22;3138;52.550;13.148;2022-10-16T03:18:53;13.90;99.90
6210;DHT22;3138;52.550;13.148;2022-10-16T03:21:21;13.70;99.90
6210;DHT22;3138;52.550;13.148;2022-10-16T03:23:48;13.70;99.90
6210;DHT22;3138;52.550;13.148;2022-10-16T03:26:15;13.70;99.90
6210;DHT22;3138;52.550;13.148;2022-10-16T03:28:41;13.60;99.90
6210;DHT22;3138;52.550;13.148;2022-10-16T03:31:08;13.60;99.90
6210;DHT22;3138;52.550;13.148;2022-10-16T03:33:35;13.50;99.90
6210;DHT22;3138;52.550;13.148;2022-10-16T03:36:02;13.50;99.90
6210;DHT22;3138;52.550;13.148;2022-10-16T03:38:30;13.40;99.90
6210;DHT22;3138;52.550;13.148;2022-10-16T03:40:56;13.40;99.90
6210;DHT22;3138;52.550;13.148;2022-10-16T03:43:23;13.50;99.90
6210;DHT22;3138;52.550;13.148;2022-10-16T03:45:50;13.50;99.90
6210;DHT22;3138;52.550;13.148;2022-10-16T03:48:17;13.50;99.90
6210;DHT22;3138;52.550;13.148;2022-10-16T03:50:43;13.50;99.90
6210;DHT22;3138;52.550;13.148;2022-10-16T03:53:11;13.60;99.90
6210;DHT22;3138;52.550;13.148;2022-10-16T03:55:41;13.60;99.90
6210;DHT22;3138;52.550;13.148;2022-10-16T03:58:07;13.60;99.90
6210;DHT22;3138;52.550;13.148;2022-10-16T04:00:39;13.50;99.90
6210;DHT22;3138;52.550;13.148;2022-10-16T04:03:05;13.60;99.90
6210;DHT22;3138;52.550;13.148;2022-10-16T04:05:32;13.60;99.90
6210;DHT22;3138;52.550;13.148;2022-10-16T04:07:59;13.50;99.90
6210;DHT22;3138;52.550;13.148;2022-10-16T04:10:26;13.50;99.90
6210;DHT22;3138;52.550;13.148;2022-10-16T04:12:54;13.50;99.90
6210;DHT22;3138;52.550;13.148;2022-10-16T04:15:21;13.50;99.90
6210;DHT22;3138;52.550;13.148;2022-10-16T04:17:48;13.40;99.90
6210;DHT22;3138;52.550;13.148;2022-10-16T04:20:15;13.40;99.90
6210;DHT22;3138;52.550;13.148;2022-10-16T04:22:41;13.40;99.90
6210;DHT22;3138;52.550;13.148;2022-10-16T04:25:08;13.40;99.90
6210;DHT22;3138;52.550;13.148;2022-10-16T04:27:36;13.40;99.90
6210;DHT22;3138;52.550;13.148;2022-10-16T04:30:06;13.40;99.90
6210;DHT22;3138;52.550;13.148;2022-10-16T04:32:33;13.40;99.90
6210;DHT22;3138;52.550;13.148;2022-10-16T04:34:59;13.40;99.90
6210;DHT22;3138;52.550;13.148;2022-10-16T04:37:27;13.30;99.90
6210;DHT22;3138;52.550;13.148;2022-10-16T04:39:54;13.20;99.90
6210;DHT22;3138;52.550;13.148;2022-10-16T04:42:21;13.10;99.90
6210;DHT22;3138;52.550;13.148;2022-10-16T04:44:47;13.10;99.90
6210;DHT22;3138;52.550;13.148;2022-10-16T04:47:15;13.10;99.90
6210;DHT22;3138;52.550;13.148;2022-10-16T04:49:42;13.10;99.90
6210;DHT22;3138;52.550;13.148;2022-10-16T04:52:09;13.00;99.90
6210;DHT22;3138;52.550;13.148;2022-10-16T04:54:35;12.90;99.90
6210;DHT22;3138;52.550;13.148;2022-10-16T04:57:02;12.90;99.90
6210;DHT22;3138;52.550;13.148;2022-10-16T04:59:30;12.80;99.90
6210;DHT22;3138;52.550;13.148;2022-10-16T05:01:57;12.70;99.90
6210;DHT22;3138;52.550;13.148;2022-10-16T05:04:25;12.60;99.90
6210;DHT22;3138;52.550;13.148;2022-10-16T05:06:51;12.60;99.90
6210;DHT22;3138;52.550;13.148;2022-10-16T05:09:18;12.70;99.90
6210;DHT22;3138;52.550;13.148;2022-10-16T05:11:45;12.60;99.90
6210;DHT22;3138;52.550;13.148;2022-10-16T05:14:12;12.60;99.90
6210;DHT22;3138;52.550;13.148;2022-10-16T05:16:39;12.60;99.90
6210;DHT22;3138;52.550;13.148;2022-10-16T05:19:05;12.60;99.90
6210;DHT22;3138;52.550;13.148;2022-10-16T05:21:33;12.60;99.90
6210;DHT22;3138;52.550;13.148;2022-10-16T05:24:00;12.70;99.90
6210;DHT22;3138;52.550;13.148;2022-10-16T05:26:27;12.60;99.90
6210;DHT22;3138;52.550;13.148;2022-10-16T05:28:53;12.60;99.90
6210;DHT22;3138;52.550;13.148;2022-10-16T05:31:20;12.70;99.90
6210;DHT22;3138;52.550;13.148;2022-10-16T05:33:49;12.80;99.90
6210;DHT22;3138;52.550;13.148;2022-10-16T05:36:15;12.80;99.90
6210;DHT22;3138;52.550;13.148;2022-10-16T05:38:44;12.70;99.90
6210;DHT22;3138;52.550;13.148;2022-10-16T05:41:11;12.80;99.90
6210;DHT22;3138;52.550;13.148;2022-10-16T05:43:38;12.80;99.90
6210;DHT22;3138;52.550;13.148;2022-10-16T05:46:05;12.90;99.90
6210;DHT22;3138;52.550;13.148;2022-10-16T05:48:32;12.90;99.90
6210;DHT22;3138;52.550;13.148;2022-10-16T05:51:00;12.90;99.90
6210;DHT22;3138;52.550;13.148;2022-10-16T05:53:28;13.00;99.90
6210;DHT22;3138;52.550;13.148;2022-10-16T05:55:57;13.00;99.90
6210;DHT22;3138;52.550;13.148;2022-10-16T05:58:25;13.10;99.90
6210;DHT22;3138;52.550;13.148;2022-10-16T06:00:55;13.10;99.90
6210;DHT22;3138;52.550;13.148;2022-10-16T06:03:22;13.10;99.90
6210;DHT22;3138;52.550;13.148;2022-10-16T06:05:49;13.20;99.90
6210;DHT22;3138;52.550;13.148;2022-10-16T06:08:16;13.30;99.90
6210;DHT22;3138;52.550;13.148;2022-10-16T06:10:43;13.30;99.90
6210;DHT22;3138;52.550;13.148;2022-10-16T06:13:11;13.40;99.90
6210;DHT22;3138;52.550;13.148;2022-10-16T06:15:40;13.50;99.90
6210;DHT22;3138;52.550;13.148;2022-10-16T06:18:07;13.60;99.90
6210;DHT22;3138;52.550;13.148;2022-10-16T06:20:35;13.70;99.90
6210;DHT22;3138;52.550;13.148;2022-10-16T06:23:02;13.80;99.90
6210;DHT22;3138;52.550;13.148;2022-10-16T06:25:29;13.90;99.90
6210;DHT22;3138;52.550;13.148;2022-10-16T06:27:56;13.90;99.90
6210;DHT22;3138;52.550;13.148;2022-10-16T06:30:24;13.90;99.90
6210;DHT22;3138;52.550;13.148;2022-10-16T06:32:51;14.00;99.90
6210;DHT22;3138;52.550;13.148;2022-10-16T06:35:17;14.00;99.90
6210;DHT22;3138;52.550;13.148;2022-10-16T06:37:44;14.10;99.90
6210;DHT22;3138;52.550;13.148;2022-10-16T06:40:11;14.20;99.90
6210;DHT22;3138;52.550;13.148;2022-10-16T06:42:39;14.20;99.90
6210;DHT22;3138;52.550;13.148;2022-10-16T06:45:07;14.20;99.90
6210;DHT22;3138;52.550;13.148;2022-10-16T06:47:35;14.30;99.90
6210;DHT22;3138;52.550;13.148;2022-10-16T06:50:02;14.40;99.90
6210;DHT22;3138;52.550;13.148;2022-10-16T06:52:29;14.50;99.90
6210;DHT22;3138;52.550;13.148;2022-10-16T06:54:55;14.60;99.90
6210;DHT22;3138;52.550;13.148;2022-10-16T06:57:22;14.70;99.90
6210;DHT22;3138;52.550;13.148;2022-10-16T06:59:49;14.90;99.90
6210;DHT22;3138;52.550;13.148;2022-10-16T07:02:15;15.00;99.90
6210;DHT22;3138;52.550;13.148;2022-10-16T07:04:43;15.10;99.90
6210;DHT22;3138;52.550;13.148;2022-10-16T07:07:10;15.20;99.90
6210;DHT22;3138;52.550;13.148;2022-10-16T07:09:37;15.30;99.90
6210;DHT22;3138;52.550;13.148;2022-10-16T07:12:04;15.30;99.90
6210;DHT22;3138;52.550;13.148;2022-10-16T07:14:31;15.40;99.90
6210;DHT22;3138;52.550;13.148;2022-10-16T07:16:57;15.40;99.90
6210;DHT22;3138;52.550;13.148;2022-10-16T07:19:24;15.40;99.90
6210;DHT22;3138;52.550;13.148;2022-10-16T07:21:52;15.50;99.90
6210;DHT22;3138;52.550;13.148;2022-10-16T07:24:19;15.60;99.90
6210;DHT22;3138;52.550;13.148;2022-10-16T07:26:46;15.70;99.90
6210;DHT22;3138;52.550;13.148;2022-10-16T07:29:14;15.80;99.90
6210;DHT22;3138;52.550;13.148;2022-10-16T07:31:41;15.80;99.90
6210;DHT22;3138;52.550;13.148;2022-10-16T07:34:08;15.90;99.90
6210;DHT22;3138;52.550;13.148;2022-10-16T07:36:34;15.90;99.90
6210;DHT22;3138;52.550;13.148;2022-10-16T07:39:03;16.00;99.90
6210;DHT22;3138;52.550;13.148;2022-10-16T07:41:30;16.00;99.90
6210;DHT22;3138;52.550;13.148;2022-10-16T07:43:58;16.00;99.90
6210;DHT22;3138;52.550;13.148;2022-10-16T07:46:26;16.00;99.90
6210;DHT22;3138;52.550;13.148;2022-10-16T07:48:53;16.10;99.90
6210;DHT22;3138;52.550;13.148;2022-10-16T07:51:21;16.10;99.90
6210;DHT22;3138;52.550;13.148;2022-10-16T07:53:49;16.10;99.90
6210;DHT22;3138;52.550;13.148;2022-10-16T07:56:18;16.00;99.90
6210;DHT22;3138;52.550;13.148;2022-10-16T07:58:45;16.00;99.90
6210;DHT22;3138;52.550;13.148;2022-10-16T08:01:14;16.00;99.90
6210;DHT22;3138;52.550;13.148;2022-10-16T08:03:42;16.10;99.90
6210;DHT22;3138;52.550;13.148;2022-10-16T08:06:08;16.10;99.90
6210;DHT22;3138;52.550;13.148;2022-10-16T08:08:35;16.10;99.90
6210;DHT22;3138;52.550;13.148;2022-10-16T08:11:02;16.10;99.90
6210;DHT22;3138;52.550;13.148;2022-10-16T08:13:31;16.20;99.90
6210;DHT22;3138;52.550;13.148;2022-10-16T08:15:57;16.30;99.90
6210;DHT22;3138;52.550;13.148;2022-10-16T08:18:24;16.30;99.90
6210;DHT22;3138;52.550;13.148;2022-10-16T08:20:55;16.30;99.90
6210;DHT22;3138;52.550;13.148;2022-10-16T08:23:23;16.40;99.90
6210;DHT22;3138;52.550;13.148;2022-10-16T08:25:51;16.40;99.90
6210;DHT22;3138;52.550;13.148;2022-10-16T08:28:18;16.40;99.90
6210;DHT22;3138;52.550;13.148;2022-10-16T08:30:47;16.50;99.90
6210;DHT22;3138;52.550;13.148;2022-10-16T08:33:13;16.50;99.90
6210;DHT22;3138;52.550;13.148;2022-10-16T08:35:40;16.60;99.90
6210;DHT22;3138;52.550;13.148;2022-10-16T08:38:07;16.70;99.90
6210;DHT22;3138;52.550;13.148;2022-10-16T08:40:36;16.70;99.90
6210;DHT22;3138;52.550;13.148;2022-10-16T08:43:19;16.90;99.90
6210;DHT22;3138;52.550;13.148;2022-10-16T08:46:03;16.90;99.90
6210;DHT22;3138;52.550;13.148;2022-10-16T08:48:35;17.00;99.90
6210;DHT22;3138;52.550;13.148;2022-10-16T08:51:08;17.10;99.90
6210;DHT22;3138;52.550;13.148;2022-10-16T08:53:40;17.30;99.90
6210;DHT22;3138;52.550;13.148;2022-10-16T08:56:09;17.50;99.90
6210;DHT22;3138;52.550;13.148;2022-10-16T08:58:36;17.60;99.90
6210;DHT22;3138;52.550;13.148;2022-10-16T09:01:11;17.70;99.90
6210;DHT22;3138;52.550;13.148;2022-10-16T09:04:21;17.70;99.90
6210;DHT22;3138;52.550;13.148;2022-10-16T09:06:54;17.80;99.90
6210;DHT22;3138;52.550;13.148;2022-10-16T09:09:35;18.00;99.90
6210;DHT22;3138;52.550;13.148;2022-10-16T09:12:11;18.20;99.90
6210;DHT22;3138;52.550;13.148;2022-10-16T09:14:56;18.30;99.90
6210;DHT22;3138;52.550;13.148;2022-10-16T09:17:37;18.30;99.90
6210;DHT22;3138;52.550;13.148;2022-10-16T09:20:20;18.10;99.90
6210;DHT22;3138;52.550;13.148;2022-10-16T09:22:53;18.00;99.90
6210;DHT22;3138;52.550;13.148;2022-10-16T09:25:21;17.90;99.90
6210;DHT22;3138;52.550;13.148;2022-10-16T09:27:52;17.90;99.90
6210;DHT22;3138;52.550;13.148;2022-10-16T09:30:21;17.90;99.90
6210;DHT22;3138;52.550;13.148;2022-10-16T09:32:52;17.90;99.90
6210;DHT22;3138;52.550;13.148;2022-10-16T09:35:21;18.00;99.90
6210;DHT22;3138;52.550;13.148;2022-10-16T09:37:50;18.10;99.90
6210;DHT22;3138;52.550;13.148;2022-10-16T09:40:26;18.10;99.90
6210;DHT22;3138;52.550;13.148;2022-10-16T09:43:02;18.20;99.90
6210;DHT22;3138;52.550;13.148;2022-10-16T09:45:30;18.40;99.90
6210;DHT22;3138;52.550;13.148;2022-10-16T09:48:00;18.30;99.90
6210;DHT22;3138;52.550;13.148;2022-10-16T09:50:28;18.50;99.90
6210;DHT22;3138;52.550;13.148;2022-10-16T09:53:06;18.70;99.90
6210;DHT22;3138;52.550;13.148;2022-10-16T09:55:32;18.80;99.90
6210;DHT22;3138;52.550;13.148;2022-10-16T09:57:59;19.20;99.90
6210;DHT22;3138;52.550;13.148;2022-10-16T10:00:26;19.50;99.90
6210;DHT22;3138;52.550;13.148;2022-10-16T10:02:53;19.40;99.90
6210;DHT22;3138;52.550;13.148;2022-10-16T10:05:24;19.10;99.90
6210;DHT22;3138;52.550;13.148;2022-10-16T10:07:56;19.10;99.90
6210;DHT22;3138;52.550;13.148;2022-10-16T10:10:25;18.90;99.90
6210;DHT22;3138;52.550;13.148;2022-10-16T10:12:52;18.80;99.90
6210;DHT22;3138;52.550;13.148;2022-10-16T10:15:19;18.50;99.90
6210;DHT22;3138;52.550;13.148;2022-10-16T10:17:48;18.50;99.90
6210;DHT22;3138;52.550;13.148;2022-10-16T10:20:26;18.50;99.90
6210;DHT22;3138;52.550;13.148;2022-10-16T10:22:53;18.50;99.90
6210;DHT22;3138;52.550;13.148;2022-10-16T10:25:38;18.30;99.90
6210;DHT22;3138;52.550;13.148;2022-10-16T10:28:16;18.40;99.90
6210;DHT22;3138;52.550;13.148;2022-10-16T10:30:51;18.50;99.90
6210;DHT22;3138;52.550;13.148;2022-10-16T10:33:27;18.50;99.90
6210;DHT22;3138;52.550;13.148;2022-10-16T10:36:05;18.60;99.90
6210;DHT22;3138;52.550;13.148;2022-10-16T10:38:41;18.70;99.90
6210;DHT22;3138;52.550;13.148;2022-10-16T10:41:27;18.60;99.90
6210;DHT22;3138;52.550;13.148;2022-10-16T10:44:05;18.90;99.90
6210;DHT22;3138;52.550;13.148;2022-10-16T10:46:38;19.00;99.90
6210;DHT22;3138;52.550;13.148;2022-10-16T10:49:16;19.30;99.90
6210;DHT22;3138;52.550;13.148;2022-10-16T10:51:54;19.60;99.90
6210;DHT22;3138;52.550;13.148;2022-10-16T10:54:28;20.10;99.90
6210;DHT22;3138;52.550;13.148;2022-10-16T10:57:01;20.10;99.90
6210;DHT22;3138;52.550;13.148;2022-10-16T10:59:41;19.70;99.90
6210;DHT22;3138;52.550;13.148;2022-10-16T11:02:19;19.60;99.90
6210;DHT22;3138;52.550;13.148;2022-10-16T11:05:23;19.50;99.90
6210;DHT22;3138;52.550;13.148;2022-10-16T11:07:58;19.30;99.90
6210;DHT22;3138;52.550;13.148;2022-10-16T11:10:28;19.40;99.90
6210;DHT22;3138;52.550;13.148;2022-10-16T11:13:00;19.40;99.90
6210;DHT22;3138;52.550;13.148;2022-10-16T11:15:33;19.50;99.90
6210;DHT22;3138;52.550;13.148;2022-10-16T11:18:05;19.50;99.90
6210;DHT22;3138;52.550;13.148;2022-10-16T11:20:37;19.30;99.90
6210;DHT22;3138;52.550;13.148;2022-10-16T11:23:16;19.20;99.90
6210;DHT22;3138;52.550;13.148;2022-10-16T11:25:45;19.00;99.90
6210;DHT22;3138;52.550;13.148;2022-10-16T11:28:15;18.90;99.90
6210;DHT22;3138;52.550;13.148;2022-10-16T11:30:49;18.80;99.90
6210;DHT22;3138;52.550;13.148;2022-10-16T11:33:29;19.00;99.90
6210;DHT22;3138;52.550;13.148;2022-10-16T11:36:04;19.30;99.90
6210;DHT22;3138;52.550;13.148;2022-10-16T11:38:38;19.50;99.90
6210;DHT22;3138;52.550;13.148;2022-10-16T11:41:14;19.40;99.90
6210;DHT22;3138;52.550;13.148;2022-10-16T11:43:45;19.40;99.90
6210;DHT22;3138;52.550;13.148;2022-10-16T11:46:19;19.40;99.90
6210;DHT22;3138;52.550;13.148;2022-10-16T11:48:49;19.40;99.90
6210;DHT22;3138;52.550;13.148;2022-10-16T11:51:24;19.50;99.90
6210;DHT22;3138;52.550;13.148;2022-10-16T11:53:59;19.60;98.90
6210;DHT22;3138;52.550;13.148;2022-10-16T11:56:30;19.60;95.90
6210;DHT22;3138;52.550;13.148;2022-10-16T11:59:01;19.60;96.30
6210;DHT22;3138;52.550;13.148;2022-10-16T12:01:33;19.50;95.00
6210;DHT22;3138;52.550;13.148;2022-10-16T12:04:16;19.50;95.20
6210;DHT22;3138;52.550;13.148;2022-10-16T12:06:50;19.60;95.30
6210;DHT22;3138;52.550;13.148;2022-10-16T12:09:24;19.70;95.30
6210;DHT22;3138;52.550;13.148;2022-10-16T12:11:52;19.70;94.20
6210;DHT22;3138;52.550;13.148;2022-10-16T12:14:22;19.70;93.80
6210;DHT22;3138;52.550;13.148;2022-10-16T12:17:00;19.70;93.00
6210;DHT22;3138;52.550;13.148;2022-10-16T12:19:29;19.70;93.90
6210;DHT22;3138;52.550;13.148;2022-10-16T12:21:58;19.80;94.70
6210;DHT22;3138;52.550;13.148;2022-10-16T12:24:34;19.80;92.10
6210;DHT22;3138;52.550;13.148;2022-10-16T12:27:02;19.80;92.40
6210;DHT22;3138;52.550;13.148;2022-10-16T12:29:36;19.90;91.90
6210;DHT22;3138;52.550;13.148;2022-10-16T12:32:04;20.10;91.60
6210;DHT22;3138;52.550;13.148;2022-10-16T12:34:38;20.10;90.30
6210;DHT22;3138;52.550;13.148;2022-10-16T12:37:14;20.10;87.70
6210;DHT22;3138;52.550;13.148;2022-10-16T12:39:43;20.00;83.30
6210;DHT22;3138;52.550;13.148;2022-10-16T12:42:32;20.00;85.30
6210;DHT22;3138;52.550;13.148;2022-10-16T12:45:00;20.00;82.90
6210;DHT22;3138;52.550;13.148;2022-10-16T12:47:46;20.00;84.10
6210;DHT22;3138;52.550;13.148;2022-10-16T12:50:31;20.00;81.90
6210;DHT22;3138;52.550;13.148;2022-10-16T12:52:59;20.10;82.00
6210;DHT22;3138;52.550;13.148;2022-10-16T12:55:34;20.20;82.10
6210;DHT22;3138;52.550;13.148;2022-10-16T12:58:19;20.20;78.80
6210;DHT22;3138;52.550;13.148;2022-10-16T13:00:56;20.30;80.70
6210;DHT22;3138;52.550;13.148;2022-10-16T13:06:30;20.40;77.90
6210;DHT22;3138;52.550;13.148;2022-10-16T13:12:00;20.10;79.60
6210;DHT22;3138;52.550;13.148;2022-10-16T13:15:05;20.30;79.10
6210;DHT22;3138;52.550;13.148;2022-10-16T13:17:40;20.30;76.00
6210;DHT22;3138;52.550;13.148;2022-10-16T13:20:17;20.30;77.30
6210;DHT22;3138;52.550;13.148;2022-10-16T13:22:55;20.40;77.60
6210;DHT22;3138;52.550;13.148;2022-10-16T13:25:33;20.30;73.60
6210;DHT22;3138;52.550;13.148;2022-10-16T13:28:08;20.20;70.40
6210;DHT22;3138;52.550;13.148;2022-10-16T13:30:39;20.10;70.10
6210;DHT22;3138;52.550;13.148;2022-10-16T13:33:13;20.10;69.20
6210;DHT22;3138;52.550;13.148;2022-10-16T13:35:48;20.10;71.00
6210;DHT22;3138;52.550;13.148;2022-10-16T13:38:18;20.10;70.10
6210;DHT22;3138;52.550;13.148;2022-10-16T13:40:50;20.10;70.60
6210;DHT22;3138;52.550;13.148;2022-10-16T13:43:20;20.00;68.80
6210;DHT22;3138;52.550;13.148;2022-10-16T13:45:59;19.90;69.90
6210;DHT22;3138;52.550;13.148;2022-10-16T13:48:27;19.90;69.60
6210;DHT22;3138;52.550;13.148;2022-10-16T13:51:05;19.80;69.70
6210;DHT22;3138;52.550;13.148;2022-10-16T13:53:34;19.80;71.00
6210;DHT22;3138;52.550;13.148;2022-10-16T13:56:03;19.80;71.00
6210;DHT22;3138;52.550;13.148;2022-10-16T13:58:32;19.80;71.90
6210;DHT22;3138;52.550;13.148;2022-10-16T14:01:00;19.80;72.50
6210;DHT22;3138;52.550;13.148;2022-10-16T14:03:28;19.60;74.60
6210;DHT22;3138;52.550;13.148;2022-10-16T14:05:58;19.50;74.40
6210;DHT22;3138;52.550;13.148;2022-10-16T14:08:27;19.50;76.30
6210;DHT22;3138;52.550;13.148;2022-10-16T14:10:56;19.50;76.20
6210;DHT22;3138;52.550;13.148;2022-10-16T14:13:31;19.50;76.30
6210;DHT22;3138;52.550;13.148;2022-10-16T14:16:03;19.50;77.30
6210;DHT22;3138;52.550;13.148;2022-10-16T14:18:32;19.50;77.20
6210;DHT22;3138;52.550;13.148;2022-10-16T14:21:04;19.50;76.20
6210;DHT22;3138;52.550;13.148;2022-10-16T14:23:33;19.40;78.30
6210;DHT22;3138;52.550;13.148;2022-10-16T14:26:13;19.30;76.90
6210;DHT22;3138;52.550;13.148;2022-10-16T14:28:46;19.30;75.70
6210;DHT22;3138;52.550;13.148;2022-10-16T14:31:25;19.30;75.40
6210;DHT22;3138;52.550;13.148;2022-10-16T14:33:52;19.20;74.60
6210;DHT22;3138;52.550;13.148;2022-10-16T14:36:20;19.20;76.00
6210;DHT22;3138;52.550;13.148;2022-10-16T14:38:51;19.10;75.60
6210;DHT22;3138;52.550;13.148;2022-10-16T14:41:21;19.10;75.80
6210;DHT22;3138;52.550;13.148;2022-10-16T14:43:53;19.10;74.70
6210;DHT22;3138;52.550;13.148;2022-10-16T14:46:22;19.10;74.60
6210;DHT22;3138;52.550;13.148;2022-10-16T14:48:54;19.00;74.90
6210;DHT22;3138;52.550;13.148;2022-10-16T14:51:23;19.00;74.90
6210;DHT22;3138;52.550;13.148;2022-10-16T14:53:50;19.00;74.80
6210;DHT22;3138;52.550;13.148;2022-10-16T14:56:18;19.00;72.60
6210;DHT22;3138;52.550;13.148;2022-10-16T14:58:46;18.90;72.50
6210;DHT22;3138;52.550;13.148;2022-10-16T15:01:14;18.80;73.30
6210;DHT22;3138;52.550;13.148;2022-10-16T15:03:41;18.90;73.60
6210;DHT22;3138;52.550;13.148;2022-10-16T15:06:10;18.70;75.30
6210;DHT22;3138;52.550;13.148;2022-10-16T15:08:37;18.60;76.00
6210;DHT22;3138;52.550;13.148;2022-10-16T15:11:04;18.50;77.80
6210;DHT22;3138;52.550;13.148;2022-10-16T15:13:32;18.40;78.60
6210;DHT22;3138;52.550;13.148;2022-10-16T15:15:58;18.40;77.90
6210;DHT22;3138;52.550;13.148;2022-10-16T15:18:26;18.30;78.80
6210;DHT22;3138;52.550;13.148;2022-10-16T15:20:53;18.30;79.50
6210;DHT22;3138;52.550;13.148;2022-10-16T15:23:21;18.10;80.50
6210;DHT22;3138;52.550;13.148;2022-10-16T15:25:50;18.00;81.30
6210;DHT22;3138;52.550;13.148;2022-10-16T15:28:17;18.00;81.90
6210;DHT22;3138;52.550;13.148;2022-10-16T15:30:46;18.00;79.70
6210;DHT22;3138;52.550;13.148;2022-10-16T15:33:16;17.80;81.80
6210;DHT22;3138;52.550;13.148;2022-10-16T15:35:48;17.70;82.80
6210;DHT22;3138;52.550;13.148;2022-10-16T15:38:16;17.60;84.70
6210;DHT22;3138;52.550;13.148;2022-10-16T15:40:44;17.40;87.90
6210;DHT22;3138;52.550;13.148;2022-10-16T15:43:10;17.30;90.20
6210;DHT22;3138;52.550;13.148;2022-10-16T15:45:37;17.20;90.60
6210;DHT22;3138;52.550;13.148;2022-10-16T15:48:04;17.00;91.40
6210;DHT22;3138;52.550;13.148;2022-10-16T15:50:32;17.00;93.40
6210;DHT22;3138;52.550;13.148;2022-10-16T15:53:00;16.80;93.90
6210;DHT22;3138;52.550;13.148;2022-10-16T15:55:27;16.70;95.40
6210;DHT22;3138;52.550;13.148;2022-10-16T15:57:53;16.50;95.40
6210;DHT22;3138;52.550;13.148;2022-10-16T16:00:20;16.30;96.60
6210;DHT22;3138;52.550;13.148;2022-10-16T16:02:50;16.10;98.70
6210;DHT22;3138;52.550;13.148;2022-10-16T16:05:18;15.90;99.90
6210;DHT22;3138;52.550;13.148;2022-10-16T16:07:45;15.70;99.90
6210;DHT22;3138;52.550;13.148;2022-10-16T16:10:16;15.50;99.90